createdAt,value
2022-10-21T00:00:50.273Z,6.00
2022-10-21T00:03:18.435Z,6.20
2022-10-21T00:05:46.400Z,6.73
2022-10-21T00:08:14.273Z,5.80
2022-10-21T00:10:42.429Z,7.27
2022-10-21T00:13:10.459Z,6.33
2022-10-21T00:15:39.657Z,5.50
2022-10-21T00:18:07.521Z,5.93
2022-10-21T00:20:37.463Z,5.90
2022-10-21T00:23:07.489Z,6.10
2022-10-21T00:25:35.342Z,5.57
2022-10-21T00:28:03.294Z,6.57
2022-10-21T00:30:31.129Z,6.03
2022-10-21T00:33:02.943Z,5.93
2022-10-21T00:35:34.646Z,5.70
2022-10-21T00:38:02.538Z,7.00
2022-10-21T00:40:30.475Z,5.80
2022-10-21T00:42:58.367Z,5.73
2022-10-21T00:45:27.617Z,6.50
2022-10-21T00:48:00.767Z,6.27
2022-10-21T00:50:37.550Z,6.17
2022-10-21T00:53:11.866Z,5.70
2022-10-21T00:55:50.071Z,6.80
2022-10-21T00:58:19.850Z,6.53
2022-10-21T01:00:47.745Z,6.10
2022-10-21T01:03:16.085Z,6.40
2022-10-21T01:05:46.211Z,5.23
2022-10-21T01:08:14.268Z,5.97
2022-10-21T01:10:42.881Z,5.90
2022-10-21T01:13:20.186Z,5.47
2022-10-21T01:15:55.169Z,5.93
2022-10-21T01:18:30.900Z,5.50
2022-10-21T01:21:09.622Z,5.80
2022-10-21T01:24:10.564Z,6.00
2022-10-21T01:27:13.037Z,5.87
2022-10-21T01:30:06.023Z,6.13
2022-10-21T01:33:08.098Z,5.87
2022-10-21T01:35:44.583Z,5.93
2022-10-21T01:38:23.052Z,5.93
2022-10-21T01:40:58.427Z,5.97
2022-10-21T01:43:33.384Z,6.33
2022-10-21T01:46:03.500Z,6.50
2022-10-21T01:48:36.319Z,5.47
2022-10-21T01:51:07.585Z,6.13
2022-10-21T01:53:41.703Z,6.50
2022-10-21T01:56:12.008Z,5.80
2022-10-21T01:58:42.399Z,6.53
2022-10-21T02:01:12.768Z,5.93
2022-10-21T02:03:46.060Z,5.83
2022-10-21T02:06:14.921Z,6.00
2022-10-21T02:08:43.574Z,6.57
2022-10-21T02:11:13.086Z,5.23
2022-10-21T02:13:45.549Z,6.00
2022-10-21T02:16:17.355Z,5.73
2022-10-21T02:18:46.552Z,5.63
2022-10-21T02:21:18.975Z,6.30
2022-10-21T02:23:53.019Z,5.90
2022-10-21T02:26:21.475Z,5.57
2022-10-21T02:28:50.224Z,5.27
2022-10-21T02:31:32.259Z,6.13
2022-10-21T02:34:12.040Z,6.00
2022-10-21T02:36:51.663Z,5.90
2022-10-21T02:39:26.485Z,6.30
2022-10-21T02:41:56.707Z,6.57
2022-10-21T02:44:24.586Z,5.93
2022-10-21T02:46:53.438Z,6.50
2022-10-21T02:49:22.635Z,6.83
2022-10-21T02:51:50.575Z,6.87
2022-10-21T02:54:18.409Z,6.40
2022-10-21T02:56:46.237Z,6.83
2022-10-21T02:59:14.072Z,7.10
2022-10-21T03:01:41.942Z,6.67
2022-10-21T03:04:09.802Z,7.10
2022-10-21T03:06:38.965Z,6.33
2022-10-21T03:09:06.881Z,6.67
2022-10-21T03:11:34.758Z,6.57
2022-10-21T03:14:02.584Z,6.80
2022-10-21T03:16:30.424Z,7.73
2022-10-21T03:18:58.301Z,6.57
2022-10-21T03:21:26.390Z,7.03
2022-10-21T03:23:55.543Z,6.47
2022-10-21T03:26:23.507Z,6.53
2022-10-21T03:28:51.374Z,6.53
2022-10-21T03:31:19.210Z,6.47
2022-10-21T03:33:47.048Z,6.30
2022-10-21T03:36:15.006Z,6.13
2022-10-21T03:38:42.816Z,6.33
2022-10-21T03:41:12.003Z,6.63
2022-10-21T03:43:39.861Z,6.47
2022-10-21T03:46:07.663Z,5.90
2022-10-21T03:48:35.564Z,6.00
2022-10-21T03:51:03.392Z,6.37
2022-10-21T03:53:42.812Z,6.53
2022-10-21T03:56:13.345Z,6.03
2022-10-21T03:58:41.813Z,6.47
2022-10-21T04:01:13.607Z,5.97
2022-10-21T04:03:42.291Z,6.90
2022-10-21T04:06:10.339Z,6.33
2022-10-21T04:08:38.214Z,6.50
2022-10-21T04:11:06.292Z,6.33
2022-10-21T04:13:36.459Z,12.37
2022-10-21T04:16:07.012Z,17.37
2022-10-21T04:18:35.322Z,9.70
2022-10-21T04:21:03.160Z,6.67
2022-10-21T04:23:30.971Z,6.60
2022-10-21T04:25:58.836Z,5.87
2022-10-21T04:28:26.686Z,6.03
2022-10-21T04:30:55.980Z,6.77
2022-10-21T04:33:23.828Z,6.23
2022-10-21T04:35:51.690Z,6.50
2022-10-21T04:38:19.514Z,6.03
2022-10-21T04:40:47.340Z,6.00
2022-10-21T04:43:15.205Z,6.57
2022-10-21T04:45:43.051Z,30.73
2022-10-21T04:48:13.594Z,11.47
2022-10-21T04:50:41.389Z,7.20
2022-10-21T04:53:09.289Z,6.83
2022-10-21T04:55:40.032Z,6.77
2022-10-21T04:58:07.917Z,6.43
2022-10-21T05:00:35.858Z,6.37
2022-10-21T05:03:03.795Z,7.07
2022-10-21T05:05:33.091Z,6.70
2022-10-21T05:08:00.943Z,15.37
2022-10-21T05:10:30.338Z,17.90
2022-10-21T05:12:58.274Z,13.07
2022-10-21T05:15:27.003Z,8.53
2022-10-21T05:17:55.394Z,7.10
2022-10-21T05:20:23.302Z,6.23
2022-10-21T05:22:53.486Z,6.20
2022-10-21T05:25:22.984Z,6.60
2022-10-21T05:27:51.801Z,7.40
2022-10-21T05:30:19.782Z,8.17
2022-10-21T05:32:47.663Z,6.70
2022-10-21T05:35:15.591Z,6.43
2022-10-21T05:37:43.443Z,7.80
2022-10-21T05:40:13.578Z,19.23
2022-10-21T05:42:41.473Z,8.07
2022-10-21T05:45:10.798Z,7.27
2022-10-21T05:47:39.369Z,6.00
2022-10-21T05:50:08.445Z,5.73
2022-10-21T05:52:36.564Z,6.20
2022-10-21T05:55:05.141Z,6.10
2022-10-21T05:57:35.419Z,6.07
2022-10-21T06:00:03.442Z,6.53
2022-10-21T06:02:31.275Z,6.53
2022-10-21T06:04:59.131Z,9.43
2022-10-21T06:07:27.007Z,9.23
2022-10-21T06:09:55.271Z,6.47
2022-10-21T06:12:23.375Z,5.93
2022-10-21T06:14:52.561Z,5.87
2022-10-21T06:17:20.503Z,5.43
2022-10-21T06:19:50.847Z,5.33
2022-10-21T06:22:19.288Z,5.23
2022-10-21T06:24:47.373Z,6.10
2022-10-21T06:27:15.396Z,5.57
2022-10-21T06:29:43.249Z,5.23
2022-10-21T06:32:13.074Z,4.80
2022-10-21T06:34:40.963Z,5.23
2022-10-21T06:37:08.833Z,5.40
2022-10-21T06:39:36.675Z,5.40
2022-10-21T06:42:04.602Z,5.73
2022-10-21T06:44:32.504Z,5.37
2022-10-21T06:47:00.330Z,5.80
2022-10-21T06:49:29.582Z,5.73
2022-10-21T06:51:57.403Z,4.83
2022-10-21T06:54:25.371Z,5.30
2022-10-21T06:56:53.310Z,5.60
2022-10-21T06:59:21.265Z,5.03
2022-10-21T07:01:59.852Z,5.67
2022-10-21T07:04:30.132Z,5.37
2022-10-21T07:06:58.188Z,5.93
2022-10-21T07:09:26.102Z,6.10
2022-10-21T07:11:54.023Z,13.00
2022-10-21T07:14:21.887Z,7.47
2022-10-21T07:16:51.436Z,6.57
2022-10-21T07:19:19.299Z,5.93
2022-10-21T07:21:48.556Z,5.97
2022-10-21T07:24:21.398Z,5.90
2022-10-21T07:26:50.501Z,6.20
2022-10-21T07:29:18.677Z,6.30
2022-10-21T07:31:46.565Z,5.80
2022-10-21T07:34:14.473Z,5.27
2022-10-21T07:36:44.817Z,5.70
2022-10-21T07:39:16.504Z,5.87
2022-10-21T07:41:46.569Z,5.50
2022-10-21T07:44:15.013Z,5.57
2022-10-21T07:46:44.818Z,5.43
2022-10-21T07:49:13.722Z,5.33
2022-10-21T07:51:42.142Z,5.90
2022-10-21T07:54:10.650Z,6.40
2022-10-21T07:56:41.853Z,6.57
2022-10-21T07:59:13.028Z,6.80
2022-10-21T08:01:44.405Z,6.53
2022-10-21T08:04:16.234Z,6.43
2022-10-21T08:06:45.128Z,6.33
2022-10-21T08:09:13.317Z,6.10
2022-10-21T08:11:42.622Z,6.87
2022-10-21T08:14:12.042Z,6.40
2022-10-21T08:16:40.867Z,6.40
2022-10-21T08:19:09.607Z,6.43
2022-10-21T08:21:38.677Z,6.03
2022-10-21T08:24:07.074Z,5.83
2022-10-21T08:26:34.922Z,7.23
2022-10-21T08:29:05.306Z,6.73
2022-10-21T08:31:33.347Z,5.67
2022-10-21T08:34:01.192Z,5.77
2022-10-21T08:36:29.043Z,5.80
2022-10-21T08:38:56.934Z,5.00
2022-10-21T08:41:39.862Z,5.03
2022-10-21T08:44:19.769Z,5.27
2022-10-21T08:46:52.650Z,5.23
2022-10-21T08:49:28.524Z,5.07
2022-10-21T08:52:03.339Z,5.40
2022-10-21T08:54:38.619Z,4.73
2022-10-21T08:57:09.940Z,4.57
2022-10-21T08:59:41.996Z,4.50
2022-10-21T09:02:36.814Z,4.50
2022-10-21T09:05:29.551Z,4.50
2022-10-21T09:08:12.865Z,4.33
2022-10-21T09:10:57.284Z,4.40
2022-10-21T09:13:38.137Z,4.13
2022-10-21T09:16:11.559Z,4.73
2022-10-21T09:18:53.108Z,5.10
2022-10-21T09:21:26.581Z,4.30
2022-10-21T09:24:02.769Z,5.33
2022-10-21T09:26:42.356Z,5.33
2022-10-21T09:29:26.809Z,4.90
2022-10-21T09:32:02.580Z,5.57
2022-10-21T09:34:43.762Z,5.73
2022-10-21T09:37:19.435Z,5.57
2022-10-21T09:39:50.157Z,5.33
2022-10-21T09:42:35.698Z,4.90
2022-10-21T09:45:08.121Z,4.90
2022-10-21T09:47:37.552Z,5.50
2022-10-21T09:50:08.033Z,5.50
2022-10-21T09:52:38.520Z,4.43
2022-10-21T09:55:12.448Z,4.30
2022-10-21T09:57:46.955Z,3.93
2022-10-21T10:00:14.996Z,4.10
2022-10-21T10:02:46.874Z,6.93
2022-10-21T10:05:38.317Z,5.40
2022-10-21T10:08:28.386Z,3.90
2022-10-21T10:11:04.086Z,3.77
2022-10-21T10:13:32.458Z,3.63
2022-10-21T10:16:16.040Z,3.33
2022-10-21T10:18:46.200Z,3.40
2022-10-21T10:21:15.913Z,3.10
2022-10-21T10:23:47.133Z,5.57
2022-10-21T10:26:23.886Z,5.80
2022-10-21T10:28:58.785Z,6.10
2022-10-21T10:31:31.007Z,4.30
2022-10-21T10:34:04.779Z,4.50
2022-10-21T10:36:36.074Z,11.50
2022-10-21T10:39:07.569Z,8.87
2022-10-21T10:41:39.125Z,9.90
2022-10-21T10:44:17.991Z,7.80
2022-10-21T10:49:22.894Z,6.37
2022-10-21T10:52:05.918Z,7.00
2022-10-21T10:54:34.150Z,8.33
2022-10-21T10:57:04.494Z,6.50
2022-10-21T10:59:37.523Z,5.60
2022-10-21T11:02:23.094Z,4.73
2022-10-21T11:05:08.229Z,5.43
2022-10-21T11:07:40.943Z,3.87
2022-10-21T11:10:23.770Z,3.63
2022-10-21T11:12:51.701Z,2.70
2022-10-21T11:15:21.036Z,2.63
2022-10-21T11:18:07.420Z,2.30
2022-10-21T11:20:59.679Z,2.40
2022-10-21T11:23:44.562Z,1.93
2022-10-21T11:26:20.684Z,2.20
2022-10-21T11:28:56.491Z,2.13
2022-10-21T11:31:31.068Z,2.13
2022-10-21T11:34:13.287Z,2.00
2022-10-21T11:36:50.319Z,1.80
2022-10-21T11:39:38.196Z,1.97
2022-10-21T11:42:18.388Z,2.00
2022-10-21T11:45:06.938Z,1.87
2022-10-21T11:47:45.548Z,1.77
2022-10-21T11:53:12.428Z,1.80
2022-10-21T11:55:47.264Z,1.60
2022-10-21T11:58:28.727Z,1.50
2022-10-21T12:01:16.141Z,1.47
2022-10-21T12:04:17.382Z,1.50
2022-10-21T12:06:53.418Z,1.63
2022-10-21T12:09:27.632Z,2.13
2022-10-21T12:11:59.963Z,1.67
2022-10-21T12:14:31.766Z,1.87
2022-10-21T12:17:02.776Z,1.30
2022-10-21T12:19:30.990Z,1.50
2022-10-21T12:21:59.378Z,1.30
2022-10-21T12:24:41.981Z,1.30
2022-10-21T12:27:20.373Z,1.50
2022-10-21T12:30:03.623Z,1.00
2022-10-21T12:32:41.470Z,1.20
2022-10-21T12:35:14.044Z,1.00
2022-10-21T12:38:08.631Z,1.80
2022-10-21T12:40:40.634Z,1.40
2022-10-21T12:43:23.771Z,1.00
2022-10-21T12:46:06.055Z,1.10
2022-10-21T12:48:38.273Z,0.93
2022-10-21T12:51:08.793Z,1.20
2022-10-21T12:53:42.911Z,1.13
2022-10-21T12:56:12.585Z,1.20
2022-10-21T12:58:45.601Z,1.30
2022-10-21T13:01:40.318Z,1.00
2022-10-21T13:04:46.416Z,0.90
2022-10-21T13:07:37.509Z,1.00
2022-10-21T13:10:26.422Z,1.20
2022-10-21T13:13:30.646Z,1.00
2022-10-21T13:15:59.747Z,1.03
2022-10-21T13:18:53.320Z,0.90
2022-10-21T13:21:42.937Z,1.17
2022-10-21T13:24:24.067Z,1.10
2022-10-21T13:26:54.566Z,1.07
2022-10-21T13:29:44.945Z,1.00
2022-10-21T13:32:31.443Z,1.13
2022-10-21T13:35:22.803Z,0.90
2022-10-21T13:37:55.566Z,1.03
2022-10-21T13:40:31.019Z,1.10
2022-10-21T13:43:01.961Z,0.87
2022-10-21T13:45:34.499Z,1.20
2022-10-21T13:48:08.255Z,1.80
2022-10-21T13:50:40.190Z,4.77
2022-10-21T13:53:28.459Z,1.60
2022-10-21T13:55:59.351Z,0.80
2022-10-21T13:58:28.551Z,0.90
2022-10-21T14:00:59.114Z,0.73
2022-10-21T14:03:27.954Z,0.70
2022-10-21T14:05:59.566Z,1.10
2022-10-21T14:08:29.388Z,0.80
2022-10-21T14:10:59.877Z,0.90
2022-10-21T14:13:32.271Z,1.00
2022-10-21T14:16:02.351Z,1.00
2022-10-21T14:18:36.428Z,0.93
2022-10-21T14:21:09.840Z,1.03
2022-10-21T14:23:37.749Z,0.87
2022-10-21T14:26:08.394Z,0.80
2022-10-21T14:28:37.750Z,2.20
2022-10-21T14:31:11.544Z,3.00
2022-10-21T14:33:42.629Z,1.20
2022-10-21T14:36:15.350Z,0.87
2022-10-21T14:38:51.632Z,0.70
2022-10-21T14:41:23.456Z,0.90
2022-10-21T14:43:53.092Z,0.90
2022-10-21T14:46:22.946Z,0.97
2022-10-21T14:48:54.154Z,0.73
2022-10-21T14:51:23.596Z,1.20
2022-10-21T14:53:55.865Z,1.07
2022-10-21T14:56:30.355Z,0.90
2022-10-21T14:58:59.828Z,1.00
2022-10-21T15:01:29.031Z,0.70
2022-10-21T15:03:59.391Z,0.80
2022-10-21T15:06:29.065Z,0.80
2022-10-21T15:09:15.907Z,1.13
2022-10-21T15:11:44.519Z,1.00
2022-10-21T15:14:30.430Z,2.60
2022-10-21T15:17:02.151Z,2.20
2022-10-21T15:19:41.150Z,7.10
2022-10-21T15:22:23.158Z,0.83
2022-10-21T15:24:51.783Z,1.60
2022-10-21T15:27:25.078Z,0.80
2022-10-21T15:29:53.449Z,1.67
2022-10-21T15:32:26.857Z,0.80
2022-10-21T15:34:56.153Z,0.83
2022-10-21T15:37:23.974Z,0.70
2022-10-21T15:39:51.807Z,0.90
2022-10-21T15:42:20.168Z,0.77
2022-10-21T15:44:50.011Z,0.87
2022-10-21T15:47:18.524Z,1.10
2022-10-21T15:49:49.213Z,1.00
2022-10-21T15:52:17.312Z,0.90
2022-10-21T15:54:45.660Z,1.00
2022-10-21T15:57:17.676Z,1.20
2022-10-21T15:59:45.662Z,1.30
2022-10-21T16:02:16.774Z,0.80
2022-10-21T16:04:46.818Z,1.20
2022-10-21T16:07:22.869Z,1.57
2022-10-21T16:09:50.862Z,1.90
2022-10-21T16:12:20.842Z,0.83
2022-10-21T16:14:48.833Z,1.00
2022-10-21T16:17:16.765Z,0.80
2022-10-21T16:19:44.702Z,1.10
2022-10-21T16:22:17.055Z,1.10
2022-10-21T16:24:44.997Z,1.50
2022-10-21T16:27:13.914Z,0.83
2022-10-21T16:29:42.351Z,1.00
2022-10-21T16:32:12.288Z,0.70
2022-10-21T16:34:40.294Z,1.37
2022-10-21T16:37:21.631Z,1.10
2022-10-21T16:39:49.540Z,1.10
2022-10-21T16:42:17.627Z,0.73
2022-10-21T16:44:46.280Z,0.80
2022-10-21T16:47:18.906Z,1.10
2022-10-21T16:49:47.799Z,1.30
2022-10-21T16:52:16.671Z,1.00
2022-10-21T16:54:48.693Z,1.40
2022-10-21T16:57:16.995Z,1.23
2022-10-21T16:59:44.832Z,1.33
2022-10-21T17:02:16.993Z,1.63
2022-10-21T17:04:45.524Z,1.70
2022-10-21T17:07:14.038Z,1.67
2022-10-21T17:09:41.920Z,1.90
2022-10-21T17:12:12.780Z,1.83
2022-10-21T17:14:40.637Z,1.70
2022-10-21T17:17:08.458Z,1.80
2022-10-21T17:19:36.299Z,1.50
2022-10-21T17:22:04.175Z,2.13
2022-10-21T17:24:32.005Z,2.23
2022-10-21T17:26:59.856Z,1.63
2022-10-21T17:29:29.081Z,1.50
2022-10-21T17:31:56.943Z,2.43
2022-10-21T17:34:29.014Z,2.77
2022-10-21T17:36:57.074Z,2.17
2022-10-21T17:39:25.209Z,1.93
2022-10-21T17:41:53.189Z,1.90
2022-10-21T17:44:21.169Z,2.10
2022-10-21T17:46:54.273Z,2.03
2022-10-21T17:49:22.670Z,1.40
2022-10-21T17:51:50.750Z,2.27
2022-10-21T17:54:22.883Z,1.50
2022-10-21T17:56:54.424Z,1.40
2022-10-21T17:59:22.280Z,1.67
2022-10-21T18:01:51.639Z,1.90
2022-10-21T18:04:19.677Z,1.50
2022-10-21T18:06:47.674Z,1.70
2022-10-21T18:09:15.671Z,2.10
2022-10-21T18:11:43.613Z,1.33
2022-10-21T18:14:11.519Z,1.47
2022-10-21T18:16:39.433Z,2.37
2022-10-21T18:19:09.152Z,1.70
2022-10-21T18:21:37.045Z,1.70
2022-10-21T18:24:09.988Z,1.40
2022-10-21T18:26:40.516Z,1.40
2022-10-21T18:29:08.443Z,1.20
2022-10-21T18:31:37.985Z,1.57
2022-10-21T18:34:09.149Z,1.50
2022-10-21T18:36:37.064Z,1.07
2022-10-21T18:39:06.208Z,1.17
2022-10-21T18:41:34.147Z,1.43
2022-10-21T18:44:04.777Z,1.30
2022-10-21T18:46:33.268Z,1.57
2022-10-21T18:49:07.027Z,1.90
2022-10-21T18:51:36.300Z,7.70
2022-10-21T18:54:04.279Z,2.23
2022-10-21T18:56:32.275Z,1.90
2022-10-21T18:59:00.188Z,1.60
2022-10-21T19:01:28.081Z,1.50
2022-10-21T19:03:56.626Z,2.00
2022-10-21T19:06:41.020Z,2.47
2022-10-21T19:09:13.867Z,6.10
2022-10-21T19:11:43.723Z,4.30
2022-10-21T19:14:14.162Z,1.70
2022-10-21T19:16:42.942Z,1.60
2022-10-21T19:19:11.057Z,2.30
2022-10-21T19:21:40.312Z,2.20
2022-10-21T19:24:08.681Z,2.50
2022-10-21T19:26:38.885Z,1.80
2022-10-21T19:29:09.985Z,2.40
2022-10-21T19:31:38.663Z,6.47
2022-10-21T19:34:06.847Z,2.97
2022-10-21T19:36:35.506Z,1.50
2022-10-21T19:39:04.893Z,1.30
2022-10-21T19:41:32.939Z,0.83
2022-10-21T19:44:01.055Z,1.30
2022-10-21T19:46:30.626Z,1.03
2022-10-21T19:48:58.876Z,1.10
2022-10-21T19:51:27.221Z,1.07
2022-10-21T19:53:56.396Z,0.90
2022-10-21T19:56:29.553Z,1.00
2022-10-21T19:59:02.315Z,1.47
2022-10-21T20:01:30.449Z,1.40
2022-10-21T20:03:58.586Z,6.80
2022-10-21T20:06:28.381Z,3.03
2022-10-21T20:08:57.583Z,1.57
2022-10-21T20:11:28.413Z,1.10
2022-10-21T20:13:56.726Z,1.00
2022-10-21T20:16:27.091Z,1.20
2022-10-21T20:18:56.113Z,1.43
2022-10-21T20:21:24.855Z,1.80
2022-10-21T20:23:52.941Z,2.10
2022-10-21T20:26:22.643Z,1.70
2022-10-21T20:28:52.320Z,1.90
2022-10-21T20:31:20.293Z,2.00
2022-10-21T20:33:51.008Z,2.33
2022-10-21T20:36:21.229Z,2.70
2022-10-21T20:38:50.950Z,2.90
2022-10-21T20:41:22.016Z,2.47
2022-10-21T20:43:52.063Z,4.30
2022-10-21T20:46:21.799Z,2.30
2022-10-21T20:48:51.192Z,2.17
2022-10-21T20:51:21.357Z,2.30
2022-10-21T20:53:50.525Z,2.40
2022-10-21T20:56:19.187Z,2.43
2022-10-21T20:58:51.441Z,2.03
2022-10-21T21:01:22.112Z,2.13
2022-10-21T21:03:51.211Z,2.00
2022-10-21T21:06:19.216Z,2.20
2022-10-21T21:08:53.642Z,2.10
2022-10-21T21:11:35.449Z,2.73
2022-10-21T21:14:04.757Z,2.30
2022-10-21T21:16:32.870Z,2.07
2022-10-21T21:19:03.185Z,1.90
2022-10-21T21:21:33.166Z,3.53
2022-10-21T21:24:01.925Z,2.90
2022-10-21T21:26:31.713Z,2.40
2022-10-21T21:29:00.474Z,2.30
2022-10-21T21:31:30.850Z,2.20
2022-10-21T21:33:59.055Z,2.73
2022-10-21T21:36:27.061Z,2.23
2022-10-21T21:38:55.073Z,2.70
2022-10-21T21:41:23.847Z,2.73
2022-10-21T21:43:53.128Z,2.73
2022-10-21T21:46:25.839Z,2.27
2022-10-21T21:48:59.603Z,2.50
2022-10-21T21:51:31.629Z,2.20
2022-10-21T21:54:00.273Z,2.93
2022-10-21T21:56:29.120Z,2.87
2022-10-21T21:58:57.961Z,2.70
2022-10-21T22:01:28.672Z,2.93
2022-10-21T22:03:59.622Z,2.60
2022-10-21T22:06:29.477Z,2.70
2022-10-21T22:08:57.751Z,2.50
2022-10-21T22:11:28.002Z,2.60
2022-10-21T22:13:56.078Z,2.20
2022-10-21T22:16:27.486Z,2.60
2022-10-21T22:18:57.359Z,2.57
2022-10-21T22:21:25.657Z,2.60
2022-10-21T22:23:53.611Z,2.60
2022-10-21T22:26:23.127Z,2.50
2022-10-21T22:28:50.970Z,2.53
2022-10-21T22:31:19.718Z,2.30
2022-10-21T22:33:47.632Z,2.20
2022-10-21T22:36:17.261Z,2.30
2022-10-21T22:38:45.282Z,2.23
2022-10-21T22:41:13.376Z,2.00
2022-10-21T22:43:42.715Z,2.03
2022-10-21T22:48:58.640Z,1.43
2022-10-21T22:51:27.871Z,1.77
2022-10-21T22:53:56.646Z,1.70
2022-10-21T22:56:25.546Z,1.47
2022-10-21T22:58:53.601Z,1.30
2022-10-21T23:01:23.832Z,1.47
2022-10-21T23:03:52.653Z,1.50
2022-10-21T23:06:20.501Z,1.50
2022-10-21T23:08:50.215Z,1.50
2022-10-21T23:11:18.104Z,1.23
2022-10-21T23:13:56.324Z,1.57
2022-10-21T23:16:31.763Z,1.50
2022-10-21T23:19:00.186Z,1.33
2022-10-21T23:21:28.656Z,1.23
2022-10-21T23:23:57.931Z,1.83
2022-10-21T23:26:25.807Z,1.70
2022-10-21T23:28:53.883Z,1.90
2022-10-21T23:31:21.920Z,1.33
2022-10-21T23:33:49.829Z,1.23
2022-10-21T23:36:17.732Z,1.40
2022-10-21T23:38:45.615Z,1.50
2022-10-21T23:41:14.838Z,1.70
2022-10-21T23:43:42.683Z,1.40
2022-10-21T23:46:10.571Z,1.63
2022-10-21T23:48:38.472Z,1.30
2022-10-21T23:51:06.736Z,1.40
2022-10-21T23:53:34.739Z,1.47
2022-10-21T23:56:02.612Z,1.67
2022-10-21T23:58:32.191Z,1.13
